sensor_id;sensor_type;location;lat;lon;timestamp;pressure;altitude;pressure_sealevel;temperature;humidity
46718;BME280;32448;44.960;-0.698;2023-12-04T00:02:00;100777.38;;;5.51;100.00
46718;BME280;32448;44.960;-0.698;2023-12-04T00:04:27;100786.31;;;5.59;100.00
46718;BME280;32448;44.960;-0.698;2023-12-04T00:06:54;100775.13;;;5.60;100.00
46718;BME280;32448;44.960;-0.698;2023-12-04T00:09:21;100778.81;;;5.66;100.00
46718;BME280;32448;44.960;-0.698;2023-12-04T00:11:47;100782.03;;;5.59;100.00
46718;BME280;32448;44.960;-0.698;2023-12-04T00:14:14;100744.50;;;5.49;100.00
46718;BME280;32448;44.960;-0.698;2023-12-04T00:16:41;100760.28;;;5.56;100.00
46718;BME280;32448;44.960;-0.698;2023-12-04T00:19:09;100755.91;;;5.55;100.00
46718;BME280;32448;44.960;-0.698;2023-12-04T00:21:36;100748.13;;;5.55;100.00
46718;BME280;32448;44.960;-0.698;2023-12-04T00:24:04;100746.34;;;5.52;100.00
46718;BME280;32448;44.960;-0.698;2023-12-04T00:26:31;100760.16;;;5.53;100.00
46718;BME280;32448;44.960;-0.698;2023-12-04T00:28:58;100760.22;;;5.54;100.00
46718;BME280;32448;44.960;-0.698;2023-12-04T00:31:25;100744.22;;;5.42;100.00
46718;BME280;32448;44.960;-0.698;2023-12-04T00:33:52;100767.16;;;5.55;100.00
46718;BME280;32448;44.960;-0.698;2023-12-04T00:36:19;100760.16;;;5.53;100.00
46718;BME280;32448;44.960;-0.698;2023-12-04T00:38:46;100765.31;;;5.51;100.00
46718;BME280;32448;44.960;-0.698;2023-12-04T00:41:13;100751.34;;;5.47;100.00
46718;BME280;32448;44.960;-0.698;2023-12-04T00:43:39;100755.72;;;5.48;100.00
46718;BME280;32448;44.960;-0.698;2023-12-04T00:46:06;100718.97;;;5.36;100.00
46718;BME280;32448;44.960;-0.698;2023-12-04T00:48:33;100750.47;;;5.47;100.00
46718;BME280;32448;44.960;-0.698;2023-12-04T00:51:00;100752.16;;;5.46;100.00
46718;BME280;32448;44.960;-0.698;2023-12-04T00:53:27;100749.63;;;5.48;100.00
46718;BME280;32448;44.960;-0.698;2023-12-04T00:55:54;100734.72;;;5.42;100.00
46718;BME280;32448;44.960;-0.698;2023-12-04T00:58:21;100741.09;;;5.51;100.00
46718;BME280;32448;44.960;-0.698;2023-12-04T01:00:47;100725.91;;;5.37;100.00
46718;BME280;32448;44.960;-0.698;2023-12-04T01:03:15;100734.22;;;5.51;100.00
46718;BME280;32448;44.960;-0.698;2023-12-04T01:05:42;100737.69;;;5.52;100.00
46718;BME280;32448;44.960;-0.698;2023-12-04T01:08:09;100730.72;;;5.51;100.00
46718;BME280;32448;44.960;-0.698;2023-12-04T01:10:36;100717.75;;;5.51;100.00
46718;BME280;32448;44.960;-0.698;2023-12-04T01:13:02;100725.81;;;5.58;100.00
46718;BME280;32448;44.960;-0.698;2023-12-04T01:15:29;100720.63;;;5.58;100.00
46718;BME280;32448;44.960;-0.698;2023-12-04T01:17:56;100720.75;;;5.61;100.00
46718;BME280;32448;44.960;-0.698;2023-12-04T01:20:23;100708.44;;;5.56;100.00
46718;BME280;32448;44.960;-0.698;2023-12-04T01:22:50;100706.66;;;5.55;100.00
46718;BME280;32448;44.960;-0.698;2023-12-04T01:25:17;100701.41;;;5.53;100.00
46718;BME280;32448;44.960;-0.698;2023-12-04T01:27:45;100679.91;;;5.56;100.00
46718;BME280;32448;44.960;-0.698;2023-12-04T01:30:12;100669.53;;;5.56;100.00
46718;BME280;32448;44.960;-0.698;2023-12-04T01:32:40;100662.66;;;5.56;100.00
46718;BME280;32448;44.960;-0.698;2023-12-04T01:35:07;100662.66;;;5.56;100.00
46718;BME280;32448;44.960;-0.698;2023-12-04T01:37:34;100655.25;;;5.43;100.00
46718;BME280;32448;44.960;-0.698;2023-12-04T01:40:01;100671.38;;;5.58;100.00
46718;BME280;32448;44.960;-0.698;2023-12-04T01:42:28;100670.69;;;5.64;100.00
46718;BME280;32448;44.960;-0.698;2023-12-04T01:44:55;100663.91;;;5.67;100.00
46718;BME280;32448;44.960;-0.698;2023-12-04T01:47:22;100679.31;;;5.63;100.00
46718;BME280;32448;44.960;-0.698;2023-12-04T01:49:49;100644.50;;;5.56;100.00
46718;BME280;32448;44.960;-0.698;2023-12-04T01:52:16;100629.63;;;5.51;100.00
46718;BME280;32448;44.960;-0.698;2023-12-04T01:54:43;100646.69;;;5.69;100.00
46718;BME280;32448;44.960;-0.698;2023-12-04T01:57:10;100649.41;;;5.72;100.00
46718;BME280;32448;44.960;-0.698;2023-12-04T01:59:37;100628.19;;;5.59;100.00
46718;BME280;32448;44.960;-0.698;2023-12-04T02:02:05;100642.41;;;5.70;100.00
46718;BME280;32448;44.960;-0.698;2023-12-04T02:04:32;100648.56;;;5.73;100.00
46718;BME280;32448;44.960;-0.698;2023-12-04T02:07:00;100641.56;;;5.71;100.00
46718;BME280;32448;44.960;-0.698;2023-12-04T02:09:27;100631.25;;;5.72;100.00
46718;BME280;32448;44.960;-0.698;2023-12-04T02:15:10;100642.50;;;5.73;100.00
46718;BME280;32448;44.960;-0.698;2023-12-04T02:17:39;100635.63;;;5.73;100.00
46718;BME280;32448;44.960;-0.698;2023-12-04T02:20:06;100631.03;;;5.66;100.00
46718;BME280;32448;44.960;-0.698;2023-12-04T02:22:34;100634.16;;;5.81;100.00
46718;BME280;32448;44.960;-0.698;2023-12-04T02:25:01;100623.03;;;5.85;100.00
46718;BME280;32448;44.960;-0.698;2023-12-04T02:27:30;100617.81;;;5.84;100.00
46718;BME280;32448;44.960;-0.698;2023-12-04T02:30:01;100630.19;;;5.91;100.00
46718;BME280;32448;44.960;-0.698;2023-12-04T02:32:30;100588.66;;;5.66;100.00
46718;BME280;32448;44.960;-0.698;2023-12-04T02:34:59;100627.47;;;5.88;100.00
46718;BME280;32448;44.960;-0.698;2023-12-04T02:37:29;100626.47;;;5.84;100.00
46718;BME280;32448;44.960;-0.698;2023-12-04T02:39:57;100610.59;;;5.75;100.00
46718;BME280;32448;44.960;-0.698;2023-12-04T02:42:24;100617.81;;;5.84;100.00
46718;BME280;32448;44.960;-0.698;2023-12-04T02:44:51;100610.81;;;5.81;100.00
46718;BME280;32448;44.960;-0.698;2023-12-04T02:47:18;100602.03;;;5.78;100.00
46718;BME280;32448;44.960;-0.698;2023-12-04T02:49:45;100614.41;;;5.85;100.00
46718;BME280;32448;44.960;-0.698;2023-12-04T02:52:12;100607.16;;;5.76;100.00
46718;BME280;32448;44.960;-0.698;2023-12-04T02:54:39;100602.16;;;5.81;100.00
46718;BME280;32448;44.960;-0.698;2023-12-04T02:57:06;100606.22;;;5.73;100.00
46718;BME280;32448;44.960;-0.698;2023-12-04T02:59:33;100607.91;;;5.72;100.00
46718;BME280;32448;44.960;-0.698;2023-12-04T03:01:59;100608.06;;;5.77;100.00
46718;BME280;32448;44.960;-0.698;2023-12-04T03:04:28;100600.91;;;5.70;100.00
46718;BME280;32448;44.960;-0.698;2023-12-04T03:06:56;100594.78;;;5.68;100.00
46718;BME280;32448;44.960;-0.698;2023-12-04T03:09:23;100593.94;;;5.69;100.00
46718;BME280;32448;44.960;-0.698;2023-12-04T03:12:10;100599.78;;;5.62;100.00
46718;BME280;32448;44.960;-0.698;2023-12-04T03:14:37;100596.31;;;5.61;100.00
46718;BME280;32448;44.960;-0.698;2023-12-04T03:17:04;100595.41;;;5.61;100.00
46718;BME280;32448;44.960;-0.698;2023-12-04T03:19:31;100595.38;;;5.59;100.00
46718;BME280;32448;44.960;-0.698;2023-12-04T03:22:00;100593.66;;;5.60;100.00
46718;BME280;32448;44.960;-0.698;2023-12-04T03:24:26;100597.94;;;5.59;100.00
46718;BME280;32448;44.960;-0.698;2023-12-04T03:26:53;100596.13;;;5.57;100.00
46718;BME280;32448;44.960;-0.698;2023-12-04T03:29:20;100574.44;;;5.55;100.00
46718;BME280;32448;44.960;-0.698;2023-12-04T03:31:47;100562.38;;;5.55;100.00
46718;BME280;32448;44.960;-0.698;2023-12-04T03:34:13;100566.53;;;5.50;100.00
46718;BME280;32448;44.960;-0.698;2023-12-04T03:36:40;100552.66;;;5.48;100.00
46718;BME280;32448;44.960;-0.698;2023-12-04T03:39:07;100547.22;;;5.42;100.00
46718;BME280;32448;44.960;-0.698;2023-12-04T03:41:34;100550.63;;;5.39;100.00
46718;BME280;32448;44.960;-0.698;2023-12-04T03:44:00;100539.47;;;5.42;100.00
46718;BME280;32448;44.960;-0.698;2023-12-04T03:46:27;100551.94;;;5.52;100.00
46718;BME280;32448;44.960;-0.698;2023-12-04T03:48:55;100555.38;;;5.53;100.00
46718;BME280;32448;44.960;-0.698;2023-12-04T03:51:22;100548.13;;;5.42;100.00
46718;BME280;32448;44.960;-0.698;2023-12-04T03:53:49;100538.56;;;5.41;100.00
46718;BME280;32448;44.960;-0.698;2023-12-04T03:56:15;100526.41;;;5.39;100.00
46718;BME280;32448;44.960;-0.698;2023-12-04T03:58:42;100528.84;;;5.34;100.00
46718;BME280;32448;44.960;-0.698;2023-12-04T04:01:09;100508.75;;;5.27;100.00
46718;BME280;32448;44.960;-0.698;2023-12-04T04:03:36;100529.00;;;5.39;100.00
46718;BME280;32448;44.960;-0.698;2023-12-04T04:06:04;100538.44;;;5.37;100.00
46718;BME280;32448;44.960;-0.698;2023-12-04T04:08:30;100540.78;;;5.29;100.00
46718;BME280;32448;44.960;-0.698;2023-12-04T04:10:58;100535.91;;;5.38;100.00
46718;BME280;32448;44.960;-0.698;2023-12-04T04:13:24;100535.44;;;5.25;100.00
46718;BME280;32448;44.960;-0.698;2023-12-04T04:15:51;100537.38;;;5.32;100.00
46718;BME280;32448;44.960;-0.698;2023-12-04T04:18:18;100540.34;;;5.17;100.00
46718;BME280;32448;44.960;-0.698;2023-12-04T04:20:45;100521.63;;;5.00;100.00
46718;BME280;32448;44.960;-0.698;2023-12-04T04:23:12;100537.66;;;5.14;100.00
46718;BME280;32448;44.960;-0.698;2023-12-04T04:25:39;100534.34;;;5.18;100.00
46718;BME280;32448;44.960;-0.698;2023-12-04T04:28:05;100524.59;;;5.11;100.00
46718;BME280;32448;44.960;-0.698;2023-12-04T04:30:32;100520.16;;;5.07;100.00
46718;BME280;32448;44.960;-0.698;2023-12-04T04:32:59;100523.00;;;5.15;100.00
46718;BME280;32448;44.960;-0.698;2023-12-04T04:35:26;100520.41;;;5.15;100.00
46718;BME280;32448;44.960;-0.698;2023-12-04T04:37:53;100496.00;;;5.08;100.00
46718;BME280;32448;44.960;-0.698;2023-12-04T04:40:19;100496.41;;;5.20;100.00
46718;BME280;32448;44.960;-0.698;2023-12-04T04:42:46;100495.56;;;5.21;100.00
46718;BME280;32448;44.960;-0.698;2023-12-04T04:45:13;100503.69;;;5.32;100.00
46718;BME280;32448;44.960;-0.698;2023-12-04T04:47:40;100509.16;;;5.39;100.00
46718;BME280;32448;44.960;-0.698;2023-12-04T04:50:07;100511.84;;;5.42;100.00
46718;BME280;32448;44.960;-0.698;2023-12-04T04:52:34;100503.22;;;5.43;100.00
46718;BME280;32448;44.960;-0.698;2023-12-04T04:55:01;100508.56;;;5.48;100.00
46718;BME280;32448;44.960;-0.698;2023-12-04T04:57:28;100506.69;;;5.44;100.00
46718;BME280;32448;44.960;-0.698;2023-12-04T04:59:55;100494.56;;;5.43;100.00
46718;BME280;32448;44.960;-0.698;2023-12-04T05:02:21;100508.56;;;5.48;100.00
46718;BME280;32448;44.960;-0.698;2023-12-04T05:04:48;100511.16;;;5.48;100.00
46718;BME280;32448;44.960;-0.698;2023-12-04T05:07:15;100500.69;;;5.45;100.00
46718;BME280;32448;44.960;-0.698;2023-12-04T05:09:42;100508.88;;;5.57;100.00
46718;BME280;32448;44.960;-0.698;2023-12-04T05:12:09;100493.25;;;5.56;100.00
46718;BME280;32448;44.960;-0.698;2023-12-04T05:14:36;100492.25;;;5.51;100.00
46718;BME280;32448;44.960;-0.698;2023-12-04T05:17:03;100492.50;;;5.58;100.00
46718;BME280;32448;44.960;-0.698;2023-12-04T05:19:30;100479.38;;;5.54;100.00
46718;BME280;32448;44.960;-0.698;2023-12-04T05:21:57;100465.16;;;5.41;100.00
46718;BME280;32448;44.960;-0.698;2023-12-04T05:24:23;100487.94;;;5.51;100.00
46718;BME280;32448;44.960;-0.698;2023-12-04T05:26:50;100484.88;;;5.63;100.00
46718;BME280;32448;44.960;-0.698;2023-12-04T05:29:17;100489.31;;;5.67;100.00
46718;BME280;32448;44.960;-0.698;2023-12-04T05:31:44;100465.75;;;5.59;100.00
46718;BME280;32448;44.960;-0.698;2023-12-04T05:34:11;100456.97;;;5.56;100.00
46718;BME280;32448;44.960;-0.698;2023-12-04T05:36:38;100469.88;;;5.54;100.00
46718;BME280;32448;44.960;-0.698;2023-12-04T05:39:05;100482.00;;;5.55;100.00
46718;BME280;32448;44.960;-0.698;2023-12-04T05:41:32;100459.34;;;5.48;100.00
46718;BME280;32448;44.960;-0.698;2023-12-04T05:43:59;100465.41;;;5.48;100.00
46718;BME280;32448;44.960;-0.698;2023-12-04T05:46:26;100479.63;;;5.61;100.00
46718;BME280;32448;44.960;-0.698;2023-12-04T05:48:53;100474.94;;;5.49;100.00
46718;BME280;32448;44.960;-0.698;2023-12-04T05:51:20;100481.00;;;5.50;100.00
46718;BME280;32448;44.960;-0.698;2023-12-04T05:53:47;100486.53;;;5.61;100.00
46718;BME280;32448;44.960;-0.698;2023-12-04T05:56:14;100486.38;;;5.56;100.00
46718;BME280;32448;44.960;-0.698;2023-12-04T05:58:40;100488.19;;;5.59;100.00
46718;BME280;32448;44.960;-0.698;2023-12-04T06:01:07;100490.88;;;5.62;100.00
46718;BME280;32448;44.960;-0.698;2023-12-04T06:03:34;100483.59;;;5.50;100.00
46718;BME280;32448;44.960;-0.698;2023-12-04T06:06:01;100474.16;;;5.52;100.00
46718;BME280;32448;44.960;-0.698;2023-12-04T06:08:31;100460.75;;;5.38;100.00
46718;BME280;32448;44.960;-0.698;2023-12-04T06:10:57;100478.47;;;5.52;100.00
46718;BME280;32448;44.960;-0.698;2023-12-04T06:13:24;100440.69;;;5.33;100.00
46718;BME280;32448;44.960;-0.698;2023-12-04T06:15:52;100419.59;;;5.22;100.00
46718;BME280;32448;44.960;-0.698;2023-12-04T06:18:19;100439.19;;;5.39;100.00
46718;BME280;32448;44.960;-0.698;2023-12-04T06:20:47;100449.09;;;5.53;100.00
46718;BME280;32448;44.960;-0.698;2023-12-04T06:23:14;100456.78;;;5.49;100.00
46718;BME280;32448;44.960;-0.698;2023-12-04T06:25:41;100439.91;;;5.35;100.00
46718;BME280;32448;44.960;-0.698;2023-12-04T06:28:09;100438.25;;;5.37;100.00
46718;BME280;32448;44.960;-0.698;2023-12-04T06:30:36;100438.16;;;5.34;100.00
46718;BME280;32448;44.960;-0.698;2023-12-04T06:33:03;100429.38;;;5.31;100.00
46718;BME280;32448;44.960;-0.698;2023-12-04T06:35:30;100403.06;;;5.17;100.00
46718;BME280;32448;44.960;-0.698;2023-12-04T06:38:04;100403.81;;;5.15;100.00
46718;BME280;32448;44.960;-0.698;2023-12-04T06:40:32;100401.94;;;5.10;100.00
46718;BME280;32448;44.960;-0.698;2023-12-04T06:43:00;100402.69;;;5.06;100.00
46718;BME280;32448;44.960;-0.698;2023-12-04T06:45:27;100412.25;;;5.07;100.00
46718;BME280;32448;44.960;-0.698;2023-12-04T06:47:54;100421.13;;;5.16;100.00
46718;BME280;32448;44.960;-0.698;2023-12-04T06:50:21;100386.81;;;4.96;100.00
46718;BME280;32448;44.960;-0.698;2023-12-04T06:52:48;100413.00;;;5.05;100.00
46718;BME280;32448;44.960;-0.698;2023-12-04T06:55:14;100414.78;;;5.06;100.00
46718;BME280;32448;44.960;-0.698;2023-12-04T06:57:41;100419.06;;;5.05;100.00
46718;BME280;32448;44.960;-0.698;2023-12-04T07:00:08;100420.00;;;5.07;100.00
46718;BME280;32448;44.960;-0.698;2023-12-04T07:02:49;100357.50;;;4.71;100.00
46718;BME280;32448;44.960;-0.698;2023-12-04T07:05:17;100386.53;;;4.88;100.00
46718;BME280;32448;44.960;-0.698;2023-12-04T07:07:45;100379.75;;;4.92;100.00
46718;BME280;32448;44.960;-0.698;2023-12-04T07:10:12;100388.56;;;4.97;100.00
46718;BME280;32448;44.960;-0.698;2023-12-04T07:12:42;100380.06;;;5.01;100.00
46718;BME280;32448;44.960;-0.698;2023-12-04T07:15:10;100389.06;;;5.12;100.00
46718;BME280;32448;44.960;-0.698;2023-12-04T07:17:39;100403.34;;;5.26;100.00
46718;BME280;32448;44.960;-0.698;2023-12-04T07:20:06;100376.06;;;5.10;100.00
46718;BME280;32448;44.960;-0.698;2023-12-04T07:22:33;100388.47;;;5.21;100.00
46718;BME280;32448;44.960;-0.698;2023-12-04T07:25:05;100370.25;;;5.18;100.00
46718;BME280;32448;44.960;-0.698;2023-12-04T07:27:34;100389.63;;;5.30;100.00
46718;BME280;32448;44.960;-0.698;2023-12-04T07:30:02;100386.53;;;5.42;100.00
46718;BME280;32448;44.960;-0.698;2023-12-04T07:32:30;100381.28;;;5.39;100.00
46718;BME280;32448;44.960;-0.698;2023-12-04T07:34:57;100385.03;;;5.48;100.00
46718;BME280;32448;44.960;-0.698;2023-12-04T07:37:25;100374.63;;;5.47;100.00
46718;BME280;32448;44.960;-0.698;2023-12-04T07:39:53;100397.25;;;5.53;100.00
46718;BME280;32448;44.960;-0.698;2023-12-04T07:42:19;100364.94;;;5.41;100.00
46718;BME280;32448;44.960;-0.698;2023-12-04T07:44:46;100368.28;;;5.37;100.00
46718;BME280;32448;44.960;-0.698;2023-12-04T07:47:13;100364.03;;;5.39;100.00
46718;BME280;32448;44.960;-0.698;2023-12-04T07:49:44;100400.00;;;5.57;100.00
46718;BME280;32448;44.960;-0.698;2023-12-04T07:52:11;100401.25;;;5.70;100.00
46718;BME280;32448;44.960;-0.698;2023-12-04T07:54:38;100333.06;;;5.44;100.00
46718;BME280;32448;44.960;-0.698;2023-12-04T07:57:05;100408.00;;;5.92;100.00
46718;BME280;32448;44.960;-0.698;2023-12-04T07:59:32;100431.25;;;5.89;100.00
46718;BME280;32448;44.960;-0.698;2023-12-04T08:01:59;100424.75;;;6.03;100.00
46718;BME280;32448;44.960;-0.698;2023-12-04T08:04:26;100430.25;;;6.13;100.00
46718;BME280;32448;44.960;-0.698;2023-12-04T08:06:54;100439.28;;;6.26;100.00
46718;BME280;32448;44.960;-0.698;2023-12-04T08:09:21;100449.72;;;6.28;100.00
46718;BME280;32448;44.960;-0.698;2023-12-04T08:11:48;100444.47;;;6.26;100.00
46718;BME280;32448;44.960;-0.698;2023-12-04T08:14:15;100426.06;;;6.17;100.00
46718;BME280;32448;44.960;-0.698;2023-12-04T08:16:42;100453.31;;;6.33;100.00
46718;BME280;32448;44.960;-0.698;2023-12-04T08:19:09;100427.34;;;6.33;100.00
46718;BME280;32448;44.960;-0.698;2023-12-04T08:21:36;100439.63;;;6.38;100.00
46718;BME280;32448;44.960;-0.698;2023-12-04T08:24:03;100430.19;;;6.42;100.00
46718;BME280;32448;44.960;-0.698;2023-12-04T08:26:30;100421.75;;;6.49;100.00
46718;BME280;32448;44.960;-0.698;2023-12-04T08:28:56;100422.97;;;6.62;100.00
46718;BME280;32448;44.960;-0.698;2023-12-04T08:31:23;100415.00;;;6.55;100.00
46718;BME280;32448;44.960;-0.698;2023-12-04T08:33:50;100432.78;;;6.72;100.00
46718;BME280;32448;44.960;-0.698;2023-12-04T08:36:17;100422.44;;;6.73;100.00
46718;BME280;32448;44.960;-0.698;2023-12-04T08:38:44;100401.94;;;6.85;100.00
46718;BME280;32448;44.960;-0.698;2023-12-04T08:41:11;100397.81;;;6.92;100.00
46718;BME280;32448;44.960;-0.698;2023-12-04T08:43:38;100412.47;;;6.90;100.00
46718;BME280;32448;44.960;-0.698;2023-12-04T08:46:05;100431.72;;;6.98;100.00
46718;BME280;32448;44.960;-0.698;2023-12-04T08:48:31;100467.34;;;7.02;100.00
46718;BME280;32448;44.960;-0.698;2023-12-04T08:50:59;100439.59;;;7.01;100.00
46718;BME280;32448;44.960;-0.698;2023-12-04T08:53:26;100497.94;;;7.12;100.00
46718;BME280;32448;44.960;-0.698;2023-12-04T08:55:54;100464.88;;;7.07;100.00
46718;BME280;32448;44.960;-0.698;2023-12-04T08:58:21;100433.69;;;7.07;100.00
46718;BME280;32448;44.960;-0.698;2023-12-04T09:00:48;100415.28;;;6.99;100.00
46718;BME280;32448;44.960;-0.698;2023-12-04T09:03:15;100409.69;;;7.17;100.00
46718;BME280;32448;44.960;-0.698;2023-12-04T09:05:52;100432.53;;;7.30;100.00
46718;BME280;32448;44.960;-0.698;2023-12-04T09:08:19;100423.13;;;7.35;100.00
46718;BME280;32448;44.960;-0.698;2023-12-04T09:11:02;100426.88;;;7.46;100.00
46718;BME280;32448;44.960;-0.698;2023-12-04T09:13:48;100427.97;;;7.56;100.00
46718;BME280;32448;44.960;-0.698;2023-12-04T09:16:15;100420.03;;;7.51;100.00
46718;BME280;32448;44.960;-0.698;2023-12-04T09:18:42;100430.81;;;7.66;100.00
46718;BME280;32448;44.960;-0.698;2023-12-04T09:21:09;100431.81;;;7.72;100.00
46718;BME280;32448;44.960;-0.698;2023-12-04T09:23:37;100440.59;;;7.78;100.00
46718;BME280;32448;44.960;-0.698;2023-12-04T09:26:04;100441.78;;;7.91;100.00
46718;BME280;32448;44.960;-0.698;2023-12-04T09:28:31;100410.97;;;7.70;100.00
46718;BME280;32448;44.960;-0.698;2023-12-04T09:30:58;100410.63;;;7.94;100.00
46718;BME280;32448;44.960;-0.698;2023-12-04T09:33:25;100408.13;;;8.00;100.00
46718;BME280;32448;44.960;-0.698;2023-12-04T09:35:53;100404.72;;;8.02;100.00
46718;BME280;32448;44.960;-0.698;2023-12-04T09:38:20;100417.97;;;8.13;100.00
46718;BME280;32448;44.960;-0.698;2023-12-04T09:40:48;100413.63;;;8.14;100.00
46718;BME280;32448;44.960;-0.698;2023-12-04T09:43:15;100375.38;;;8.10;100.00
46718;BME280;32448;44.960;-0.698;2023-12-04T09:45:42;100425.47;;;8.40;100.00
46718;BME280;32448;44.960;-0.698;2023-12-04T09:48:10;100404.72;;;8.43;100.00
46718;BME280;32448;44.960;-0.698;2023-12-04T09:50:38;100359.28;;;8.30;100.00
46718;BME280;32448;44.960;-0.698;2023-12-04T09:53:06;100363.69;;;8.31;100.00
46718;BME280;32448;44.960;-0.698;2023-12-04T09:55:36;100394.66;;;8.63;100.00
46718;BME280;32448;44.960;-0.698;2023-12-04T09:58:04;100412.41;;;8.82;100.00
46718;BME280;32448;44.960;-0.698;2023-12-04T10:00:32;100416.97;;;8.94;100.00
46718;BME280;32448;44.960;-0.698;2023-12-04T10:02:59;100427.41;;;8.95;100.00
46718;BME280;32448;44.960;-0.698;2023-12-04T10:05:27;100415.06;;;8.85;100.00
46718;BME280;32448;44.960;-0.698;2023-12-04T10:07:54;100433.66;;;9.03;100.00
46718;BME280;32448;44.960;-0.698;2023-12-04T10:10:20;100449.50;;;9.16;100.00
46718;BME280;32448;44.960;-0.698;2023-12-04T10:12:47;100441.53;;;9.08;100.00
46718;BME280;32448;44.960;-0.698;2023-12-04T10:15:14;100431.88;;;9.02;100.00
46718;BME280;32448;44.960;-0.698;2023-12-04T10:17:43;100434.41;;;8.98;100.00
46718;BME280;32448;44.960;-0.698;2023-12-04T10:20:14;100413.44;;;8.92;100.00
46718;BME280;32448;44.960;-0.698;2023-12-04T10:25:18;100433.75;;;9.09;100.00
46718;BME280;32448;44.960;-0.698;2023-12-04T10:27:46;100444.22;;;9.12;100.00
46718;BME280;32448;44.960;-0.698;2023-12-04T10:30:23;100408.34;;;8.98;100.00
46718;BME280;32448;44.960;-0.698;2023-12-04T10:32:54;100410.09;;;8.99;100.00
46718;BME280;32448;44.960;-0.698;2023-12-04T10:35:22;100460.09;;;9.25;100.00
46718;BME280;32448;44.960;-0.698;2023-12-04T10:37:53;100433.00;;;9.17;100.00
46718;BME280;32448;44.960;-0.698;2023-12-04T10:40:27;100450.91;;;9.48;100.00
46718;BME280;32448;44.960;-0.698;2023-12-04T10:43:14;100440.69;;;9.60;100.00
46718;BME280;32448;44.960;-0.698;2023-12-04T10:45:42;100445.22;;;9.72;100.00
46718;BME280;32448;44.960;-0.698;2023-12-04T10:48:10;100441.03;;;9.83;100.00
46718;BME280;32448;44.960;-0.698;2023-12-04T10:50:39;100441.19;;;9.94;100.00
46718;BME280;32448;44.960;-0.698;2023-12-04T10:53:07;100415.84;;;9.88;100.00
46718;BME280;32448;44.960;-0.698;2023-12-04T10:55:34;100406.34;;;9.95;100.00
46718;BME280;32448;44.960;-0.698;2023-12-04T10:58:05;100430.91;;;10.09;100.00
46718;BME280;32448;44.960;-0.698;2023-12-04T11:00:35;100435.41;;;10.16;100.00
46718;BME280;32448;44.960;-0.698;2023-12-04T11:03:05;100379.31;;;9.88;100.00
46718;BME280;32448;44.960;-0.698;2023-12-04T11:05:38;100417.16;;;10.19;100.00
46718;BME280;32448;44.960;-0.698;2023-12-04T11:08:08;100387.31;;;10.00;100.00
46718;BME280;32448;44.960;-0.698;2023-12-04T11:10:57;100396.22;;;10.16;100.00
46718;BME280;32448;44.960;-0.698;2023-12-04T11:13:30;100353.50;;;10.12;100.00
46718;BME280;32448;44.960;-0.698;2023-12-04T11:16:05;100392.13;;;10.36;100.00
46718;BME280;32448;44.960;-0.698;2023-12-04T11:18:36;100368.63;;;10.36;100.00
46718;BME280;32448;44.960;-0.698;2023-12-04T11:21:08;100392.38;;;10.61;100.00
46718;BME280;32448;44.960;-0.698;2023-12-04T11:23:37;100386.22;;;10.54;100.00
46718;BME280;32448;44.960;-0.698;2023-12-04T11:26:05;100412.56;;;10.71;100.00
46718;BME280;32448;44.960;-0.698;2023-12-04T11:28:33;100397.63;;;10.62;100.00
46718;BME280;32448;44.960;-0.698;2023-12-04T11:31:00;100434.34;;;10.74;100.00
46718;BME280;32448;44.960;-0.698;2023-12-04T11:33:37;100416.03;;;10.73;100.00
46718;BME280;32448;44.960;-0.698;2023-12-04T11:36:12;100400.47;;;10.80;100.00
46718;BME280;32448;44.960;-0.698;2023-12-04T11:38:47;100354.19;;;10.70;100.00
46718;BME280;32448;44.960;-0.698;2023-12-04T11:41:17;100345.56;;;10.85;100.00
46718;BME280;32448;44.960;-0.698;2023-12-04T11:43:50;100359.66;;;10.99;100.00
46718;BME280;32448;44.960;-0.698;2023-12-04T11:46:20;100381.66;;;11.22;100.00
46718;BME280;32448;44.960;-0.698;2023-12-04T11:48:54;100392.19;;;11.33;100.00
46718;BME280;32448;44.960;-0.698;2023-12-04T11:54:10;100406.16;;;11.32;100.00
46718;BME280;32448;44.960;-0.698;2023-12-04T11:56:40;100421.91;;;11.37;100.00
46718;BME280;32448;44.960;-0.698;2023-12-04T11:59:07;100415.75;;;11.33;100.00
46718;BME280;32448;44.960;-0.698;2023-12-04T12:01:38;100390.38;;;11.23;100.00
46718;BME280;32448;44.960;-0.698;2023-12-04T12:04:06;100380.56;;;10.98;100.00
46718;BME280;32448;44.960;-0.698;2023-12-04T12:06:34;100405.84;;;10.97;100.00
46718;BME280;32448;44.960;-0.698;2023-12-04T12:09:01;100419.81;;;11.01;100.00
46718;BME280;32448;44.960;-0.698;2023-12-04T12:11:28;100405.81;;;10.92;100.00
46718;BME280;32448;44.960;-0.698;2023-12-04T12:13:55;100404.81;;;10.80;100.00
46718;BME280;32448;44.960;-0.698;2023-12-04T12:16:22;100399.53;;;10.77;100.00
46718;BME280;32448;44.960;-0.698;2023-12-04T12:18:49;100399.63;;;10.86;100.00
46718;BME280;32448;44.960;-0.698;2023-12-04T12:21:16;100388.28;;;10.85;100.00
46718;BME280;32448;44.960;-0.698;2023-12-04T12:23:43;100396.31;;;11.02;100.00
46718;BME280;32448;44.960;-0.698;2023-12-04T12:26:10;100389.28;;;10.98;100.00
46718;BME280;32448;44.960;-0.698;2023-12-04T12:28:38;100384.00;;;10.90;100.00
46718;BME280;32448;44.960;-0.698;2023-12-04T12:31:04;100408.53;;;11.03;100.00
46718;BME280;32448;44.960;-0.698;2023-12-04T12:33:32;100395.41;;;11.00;100.00
46718;BME280;32448;44.960;-0.698;2023-12-04T12:35:59;100403.22;;;10.97;100.00
46718;BME280;32448;44.960;-0.698;2023-12-04T12:38:30;100409.38;;;11.01;100.00
46718;BME280;32448;44.960;-0.698;2023-12-04T12:41:09;100422.47;;;11.05;100.00
46718;BME280;32448;44.960;-0.698;2023-12-04T12:43:38;100412.84;;;11.00;100.00
46718;BME280;32448;44.960;-0.698;2023-12-04T12:46:05;100405.06;;;11.09;100.00
46718;BME280;32448;44.960;-0.698;2023-12-04T12:48:32;100414.66;;;11.10;100.00
46718;BME280;32448;44.960;-0.698;2023-12-04T12:51:02;100406.81;;;11.10;100.00